Time;durP1;ratioP1;P1;durP2;ratioP2;P2;SDS_P1;SDS_P2;PMS_P1;PMS_P2;Temp;Humidity;BMP_temperature;BMP_pressure;BME280_temperature;BME280_humidity;BME280_pressure;Samples;Min_cycle;Max_cycle;Signal;HPM_P1;HPM_P2
2023/01/15 00:00:00;;;;;;;;;;;;;;;29.05;22.38;101470.25;5076050;28;1020;-21
2023/01/15 00:02:26;;;;;;;;;;;;;;;28.20;23.40;101466.16;5076495;28;1091;-21
2023/01/15 00:04:51;;;;;;;;;;;;;;;27.94;23.84;101461.81;5075685;28;1158;-20
2023/01/15 00:07:16;;;;;;;;;;;;;;;27.99;24.09;101455.91;5076013;28;1058;-21
2023/01/15 00:09:41;;;;;;;;;;;;;;;28.10;23.58;101460.09;5071840;28;1918;-21
2023/01/15 00:12:07;;;;;;;;;;;;;;;28.29;23.27;101461.56;5076504;28;1071;-21
2023/01/15 00:14:33;;;;;;;;;;;;;;;28.71;23.02;101459.56;5075406;28;1194;-20
2023/01/15 00:16:58;;;;;;;;;;;;;;;29.42;21.99;101457.81;5076389;28;2388;-20
2023/01/15 00:19:23;;;;;;;;;;;;;;;29.57;21.91;101457.84;5076452;28;991;-21
2023/01/15 00:21:48;;;;;;;;;;;;;;;29.69;21.47;101452.00;5075682;28;1143;-21
2023/01/15 00:29:42;;;;;;;;;;;;;;;28.33;23.16;101452.09;5062893;28;1979;-21
2023/01/15 00:32:07;;;;;;;;;;;;;;;28.62;23.22;101462.47;5076241;28;1131;-20
2023/01/15 00:34:32;;;;;;;;;;;;;;;28.85;22.88;101460.69;5075046;28;904;-21
2023/01/15 00:36:58;;;;;;;;;;;;;;;29.07;22.48;101465.50;5062857;28;1201;-20
2023/01/15 00:39:23;;;;;;;;;;;;;;;29.07;22.49;101455.50;5076496;28;1091;-21
2023/01/15 00:41:49;;;;;;;;;;;;;;;28.42;23.29;101458.34;5058056;28;1152;-21
2023/01/15 00:44:14;;;;;;;;;;;;;;;27.98;24.03;101452.34;5075903;28;1092;-20
2023/01/15 00:46:39;;;;;;;;;;;;;;;27.95;23.76;101449.97;5075731;28;1070;-21
2023/01/15 00:49:05;;;;;;;;;;;;;;;28.21;23.16;101456.19;5075592;28;2642;-21
2023/01/15 00:51:30;;;;;;;;;;;;;;;28.28;23.44;101461.75;5075205;28;1950;-21
2023/01/15 00:53:55;;;;;;;;;;;;;;;29.46;22.00;101461.81;5076297;28;1095;-20
2023/01/15 00:56:20;;;;;;;;;;;;;;;29.64;21.42;101458.00;5075839;28;1131;-20
2023/01/15 00:58:46;;;;;;;;;;;;;;;28.77;22.52;101454.47;5075840;28;957;-21
2023/01/15 01:01:12;;;;;;;;;;;;;;;28.76;22.97;101452.78;5075394;28;1009;-21
2023/01/15 01:03:37;;;;;;;;;;;;;;;28.27;23.46;101455.47;5075643;28;1064;-21
2023/01/15 01:06:03;;;;;;;;;;;;;;;28.61;23.10;101453.53;5075666;28;998;-21
2023/01/15 01:08:28;;;;;;;;;;;;;;;28.91;22.67;101455.56;5075709;28;1034;-21
2023/01/15 01:11:00;;;;;;;;;;;;;;;28.16;23.46;101445.84;5075323;28;1913;-20
2023/01/15 01:13:25;;;;;;;;;;;;;;;27.76;24.01;101440.34;5062653;28;1031;-20
2023/01/15 01:15:50;;;;;;;;;;;;;;;27.96;23.56;101438.13;5075554;28;1103;-20
2023/01/15 01:18:16;;;;;;;;;;;;;;;27.98;23.67;101435.25;5075616;28;2478;-21
2023/01/15 01:20:41;;;;;;;;;;;;;;;28.21;23.43;101431.84;5075668;28;1039;-20
2023/01/15 01:23:06;;;;;;;;;;;;;;;28.23;23.40;101430.63;5075047;28;907;-20
2023/01/15 01:25:31;;;;;;;;;;;;;;;28.31;23.63;101434.34;5075728;28;1047;-20
2023/01/15 01:27:57;;;;;;;;;;;;;;;28.47;23.33;101439.72;5072400;28;1017;-20
2023/01/15 01:30:22;;;;;;;;;;;;;;;28.66;22.82;101443.00;5072658;28;1956;-20
2023/01/15 01:32:47;;;;;;;;;;;;;;;28.53;22.80;101446.28;5079141;28;1000;-21
2023/01/15 01:35:13;;;;;;;;;;;;;;;29.17;22.34;101446.28;5079729;28;899;-20
2023/01/15 01:37:38;;;;;;;;;;;;;;;29.78;21.64;101448.19;5079240;28;1130;-21
2023/01/15 01:40:03;;;;;;;;;;;;;;;29.92;21.27;101451.09;5079434;28;1071;-21
2023/01/15 01:42:29;;;;;;;;;;;;;;;29.88;21.27;101453.34;5079728;28;1086;-21
2023/01/15 01:44:58;;;;;;;;;;;;;;;28.80;22.54;101451.38;5079660;28;1088;-21
2023/01/15 01:47:24;;;;;;;;;;;;;;;28.21;23.38;101451.59;5078622;28;2316;-20
2023/01/15 01:49:53;;;;;;;;;;;;;;;28.43;22.88;101448.34;5061488;28;1898;-21
2023/01/15 01:52:22;;;;;;;;;;;;;;;28.73;22.85;101448.53;5061606;28;1100;-21
2023/01/15 01:54:49;;;;;;;;;;;;;;;29.22;22.11;101449.31;5079152;28;1071;-21
2023/01/15 01:57:15;;;;;;;;;;;;;;;29.27;22.04;101454.19;5079734;28;1154;-20
2023/01/15 01:59:40;;;;;;;;;;;;;;;29.24;22.15;101451.84;5078862;28;926;-20
2023/01/15 02:02:05;;;;;;;;;;;;;;;28.32;23.20;101445.00;5061257;28;1044;-21
2023/01/15 02:04:31;;;;;;;;;;;;;;;28.05;23.87;101447.09;5077942;28;1134;-20
2023/01/15 02:06:57;;;;;;;;;;;;;;;28.24;23.36;101443.13;5061263;28;1099;-21
2023/01/15 02:09:22;;;;;;;;;;;;;;;28.56;22.87;101454.03;5078467;28;1000;-20
2023/01/15 02:11:48;;;;;;;;;;;;;;;29.25;22.25;101453.50;5078682;28;1977;-21
2023/01/15 02:14:20;;;;;;;;;;;;;;;29.91;21.34;101444.00;5061073;28;1004;-21
2023/01/15 02:16:54;;;;;;;;;;;;;;;28.99;22.08;101443.88;5060909;28;2252;-21
2023/01/15 02:19:20;;;;;;;;;;;;;;;28.74;22.68;101444.84;5073896;28;1004;-21
2023/01/15 02:22:10;;;;;;;;;;;;;;;28.48;22.97;101444.09;5078547;28;1202;-21
2023/01/15 02:25:13;;;;;;;;;;;;;;;28.62;22.90;101447.09;5059715;28;958;-20
2023/01/15 02:27:41;;;;;;;;;;;;;;;29.05;22.48;101444.00;4996821;28;1261;-21
2023/01/15 02:30:11;;;;;;;;;;;;;;;28.03;23.73;101442.88;4980546;28;1890;-21
2023/01/15 02:32:56;;;;;;;;;;;;;;;27.83;24.02;101440.53;5020873;28;1196;-20
2023/01/15 02:35:24;;;;;;;;;;;;;;;27.94;23.80;101434.78;5075711;28;1226;-20
2023/01/15 02:37:50;;;;;;;;;;;;;;;28.03;23.58;101438.28;5059885;28;1112;-20
2023/01/15 02:40:19;;;;;;;;;;;;;;;28.19;23.67;101445.53;5059937;28;1037;-21
2023/01/15 02:42:45;;;;;;;;;;;;;;;28.29;23.44;101430.97;5060277;28;1083;-21
2023/01/15 02:45:11;;;;;;;;;;;;;;;28.41;23.39;101436.88;5078099;28;1051;-20
2023/01/15 02:47:37;;;;;;;;;;;;;;;28.41;23.17;101434.16;5052728;28;1830;-21
2023/01/15 02:50:03;;;;;;;;;;;;;;;28.43;23.15;101432.09;5073047;28;1898;-21
2023/01/15 02:52:30;;;;;;;;;;;;;;;28.55;22.56;101436.13;5077901;28;1101;-21
2023/01/15 02:54:57;;;;;;;;;;;;;;;29.89;21.40;101432.50;5059972;28;1127;-20
2023/01/15 02:57:23;;;;;;;;;;;;;;;29.14;22.03;101433.97;5059770;28;1294;-21
2023/01/15 02:59:48;;;;;;;;;;;;;;;28.85;22.42;101430.91;5059797;28;1068;-21
2023/01/15 03:02:15;;;;;;;;;;;;;;;29.09;22.46;101428.25;5077992;28;1094;-20
2023/01/15 03:04:42;;;;;;;;;;;;;;;28.96;22.35;101426.91;5059894;28;1067;-22
2023/01/15 03:07:15;;;;;;;;;;;;;;;28.87;22.46;101425.28;5077704;28;1000;-21
2023/01/15 03:09:40;;;;;;;;;;;;;;;29.14;22.11;101430.41;5059623;28;1146;-20
2023/01/15 03:12:12;;;;;;;;;;;;;;;27.96;23.96;101431.91;5077444;28;1969;-20
2023/01/15 03:14:45;;;;;;;;;;;;;;;28.01;24.04;101423.25;5077475;28;1107;-21
2023/01/15 03:17:15;;;;;;;;;;;;;;;28.32;23.11;101417.94;5056056;28;1872;-20
2023/01/15 03:19:44;;;;;;;;;;;;;;;28.71;23.05;101432.47;5057700;28;1184;-21
2023/01/15 03:22:12;;;;;;;;;;;;;;;29.62;21.67;101424.78;5077620;28;1130;-20
2023/01/15 03:24:40;;;;;;;;;;;;;;;29.15;21.99;101424.81;5077328;28;1119;-21
2023/01/15 03:27:05;;;;;;;;;;;;;;;28.69;22.44;101428.28;5077481;28;1001;-21
2023/01/15 03:29:38;;;;;;;;;;;;;;;28.54;22.82;101431.75;5077643;28;1103;-20
2023/01/15 03:32:03;;;;;;;;;;;;;;;28.45;23.25;101427.38;5059088;28;1963;-20
2023/01/15 03:34:31;;;;;;;;;;;;;;;28.88;22.63;101437.81;5077745;28;1066;-21
2023/01/15 03:36:56;;;;;;;;;;;;;;;29.08;22.18;101435.50;5052947;28;1564;-21
2023/01/15 03:39:21;;;;;;;;;;;;;;;27.87;23.87;101439.19;5076839;28;1079;-20
2023/01/15 03:41:49;;;;;;;;;;;;;;;27.79;24.28;101426.53;5077047;28;1078;-21
2023/01/15 03:44:14;;;;;;;;;;;;;;;27.94;23.78;101433.94;5059413;28;1028;-21
2023/01/15 03:46:51;;;;;;;;;;;;;;;28.17;23.85;101441.31;5076532;28;1064;-20
2023/01/15 03:49:32;;;;;;;;;;;;;;;28.15;23.54;101440.63;5065184;28;1065;-21
2023/01/15 03:52:05;;;;;;;;;;;;;;;28.29;23.52;101439.94;5076870;28;1965;-21
2023/01/15 03:54:40;;;;;;;;;;;;;;;28.41;23.62;101445.00;5059017;28;1068;-21
2023/01/15 03:57:26;;;;;;;;;;;;;;;28.48;23.38;101444.09;5076641;28;1150;-21
2023/01/15 03:59:53;;;;;;;;;;;;;;;28.42;23.11;101447.50;5076022;28;1451;-20
2023/01/15 04:02:18;;;;;;;;;;;;;;;28.91;22.83;101448.28;5058806;28;1040;-21
2023/01/15 04:04:43;;;;;;;;;;;;;;;29.64;21.89;101452.56;5058629;28;1151;-21
2023/01/15 04:07:09;;;;;;;;;;;;;;;29.87;21.43;101454.38;5076946;28;1167;-21
2023/01/15 04:09:38;;;;;;;;;;;;;;;29.95;21.64;101458.88;5076451;28;1080;-21
2023/01/15 04:12:04;;;;;;;;;;;;;;;28.79;22.70;101447.88;5058256;28;1973;-21
2023/01/15 04:14:29;;;;;;;;;;;;;;;28.22;23.65;101442.47;5075957;28;1087;-20
2023/01/15 04:16:55;;;;;;;;;;;;;;;28.51;22.94;101450.19;5074623;28;1793;-21
2023/01/15 04:19:20;;;;;;;;;;;;;;;28.76;23.20;101450.06;5067431;28;1195;-20
2023/01/15 04:21:45;;;;;;;;;;;;;;;29.20;22.53;101456.75;5076091;28;1056;-20
2023/01/15 04:24:10;;;;;;;;;;;;;;;29.23;22.33;101447.44;5075932;28;850;-21
2023/01/15 04:26:36;;;;;;;;;;;;;;;29.54;21.96;101444.66;5075974;28;1011;-20
2023/01/15 04:29:01;;;;;;;;;;;;;;;28.81;22.97;101444.97;5076273;28;1074;-21
2023/01/15 04:31:26;;;;;;;;;;;;;;;28.20;23.81;101443.66;5075852;28;1901;-21
2023/01/15 04:33:52;;;;;;;;;;;;;;;28.24;23.49;101435.00;5076348;28;1158;-21
2023/01/15 04:36:17;;;;;;;;;;;;;;;28.41;23.40;101434.16;5073511;28;1012;-21
2023/01/15 04:38:43;;;;;;;;;;;;;;;28.77;22.86;101435.50;5076206;28;1028;-22
2023/01/15 04:44:07;;;;;;;;;;;;;;;28.66;21.15;101434.88;5075323;28;1104;-21
2023/01/15 04:46:42;;;;;;;;;;;;;;;28.11;20.85;101440.97;5075512;28;1124;-21
2023/01/15 04:49:09;;;;;;;;;;;;;;;26.49;21.99;101434.88;5074865;28;2596;-21
2023/01/15 04:51:34;;;;;;;;;;;;;;;27.01;21.27;101437.56;5075336;28;1902;-21
2023/01/15 04:54:03;;;;;;;;;;;;;;;27.24;21.45;101439.66;5062088;28;1040;-20
2023/01/15 04:56:28;;;;;;;;;;;;;;;27.21;22.01;101442.72;5055288;28;1052;-20
2023/01/15 04:58:53;;;;;;;;;;;;;;;27.38;22.08;101447.09;5068063;28;1100;-20
2023/01/15 05:01:18;;;;;;;;;;;;;;;27.52;22.34;101450.16;5055266;28;880;-20
2023/01/15 05:03:44;;;;;;;;;;;;;;;27.62;22.55;101453.53;5068751;28;1164;-20
2023/01/15 05:06:09;;;;;;;;;;;;;;;27.77;22.49;101454.72;5063293;28;1066;-20
2023/01/15 05:08:34;;;;;;;;;;;;;;;27.78;22.31;101461.84;5060810;28;1408;-20
2023/01/15 05:11:03;;;;;;;;;;;;;;;27.93;22.29;101462.81;5063052;28;1910;-20
2023/01/15 05:13:32;;;;;;;;;;;;;;;28.24;22.38;101472.88;5061488;28;961;-20
2023/01/15 05:16:05;;;;;;;;;;;;;;;28.31;22.31;101467.63;5067337;28;1064;-20
2023/01/15 05:18:31;;;;;;;;;;;;;;;28.16;22.47;101470.22;5059251;28;1861;-20
2023/01/15 05:20:56;;;;;;;;;;;;;;;28.48;22.23;101462.19;5066454;28;1087;-20
2023/01/15 05:23:21;;;;;;;;;;;;;;;28.19;22.35;101466.31;5071637;28;1040;-20
2023/01/15 05:25:46;;;;;;;;;;;;;;;28.48;22.17;101471.16;5075705;28;1024;-20
2023/01/15 05:28:12;;;;;;;;;;;;;;;28.27;22.35;101469.00;5073384;28;1055;-20
2023/01/15 05:30:37;;;;;;;;;;;;;;;28.19;22.65;101472.59;5063487;28;1977;-20
2023/01/15 05:33:02;;;;;;;;;;;;;;;27.46;23.39;101475.97;5063572;28;1194;-20
2023/01/15 05:35:28;;;;;;;;;;;;;;;28.76;21.97;101475.25;5061261;28;1036;-20
2023/01/15 05:37:53;;;;;;;;;;;;;;;29.49;21.17;101486.88;5074692;28;1085;-20
2023/01/15 05:40:18;;;;;;;;;;;;;;;29.79;20.94;101482.44;5066339;28;1057;-20
2023/01/15 05:42:43;;;;;;;;;;;;;;;29.96;20.67;101473.28;5055478;28;1017;-21
2023/01/15 05:45:09;;;;;;;;;;;;;;;28.88;21.96;101485.72;5056033;28;1012;-19
2023/01/15 05:47:34;;;;;;;;;;;;;;;28.47;22.62;101479.47;5055351;28;1889;-19
2023/01/15 05:50:00;;;;;;;;;;;;;;;28.15;22.78;101476.66;5075128;28;1894;-20
2023/01/15 05:52:25;;;;;;;;;;;;;;;28.50;22.77;101472.84;5076058;28;1083;-20
2023/01/15 05:54:50;;;;;;;;;;;;;;;29.38;21.57;101475.44;5068915;28;1056;-20
2023/01/15 05:57:15;;;;;;;;;;;;;;;29.65;21.15;101473.22;5055590;28;1047;-20
2023/01/15 05:59:41;;;;;;;;;;;;;;;29.37;21.28;101479.19;5073647;28;1068;-20
2023/01/15 06:02:06;;;;;;;;;;;;;;;28.22;22.69;101483.06;5063806;28;1140;-20
2023/01/15 06:04:31;;;;;;;;;;;;;;;28.31;22.78;101477.63;5074356;28;1183;-20
2023/01/15 06:06:57;;;;;;;;;;;;;;;28.16;22.88;101475.63;5075620;28;1016;-20
2023/01/15 06:09:22;;;;;;;;;;;;;;;28.43;22.47;101489.78;5069715;28;1028;-20
2023/01/15 06:11:48;;;;;;;;;;;;;;;29.02;22.09;101479.56;5083685;28;1968;-20
2023/01/15 06:14:13;;;;;;;;;;;;;;;27.95;23.09;101482.44;5065906;28;1167;-20
2023/01/15 06:16:38;;;;;;;;;;;;;;;27.86;23.64;101476.19;5072130;28;1128;-20
2023/01/15 06:19:04;;;;;;;;;;;;;;;27.82;23.81;101469.44;5059107;28;2083;-20
2023/01/15 06:21:30;;;;;;;;;;;;;;;28.00;23.54;101476.50;5064140;28;1013;-20
2023/01/15 06:23:55;;;;;;;;;;;;;;;28.37;22.65;101476.97;5067066;28;1460;-21
2023/01/15 06:26:20;;;;;;;;;;;;;;;28.48;22.61;101475.72;5062849;28;1191;-20
2023/01/15 06:28:46;;;;;;;;;;;;;;;29.24;21.89;101479.78;5078696;28;996;-20
2023/01/15 06:31:12;;;;;;;;;;;;;;;29.70;20.84;101489.78;5067147;28;1906;-20
2023/01/15 06:33:37;;;;;;;;;;;;;;;29.24;21.52;101484.34;5065986;28;983;-20
2023/01/15 06:36:03;;;;;;;;;;;;;;;29.56;21.61;101468.88;5064686;28;1040;-20
2023/01/15 06:38:28;;;;;;;;;;;;;;;29.58;21.27;101472.22;5076480;28;1050;-20
2023/01/15 06:40:54;;;;;;;;;;;;;;;29.62;21.38;101470.03;5059048;28;1095;-20
2023/01/15 06:48:46;;;;;;;;;;;;;;;28.74;22.43;101471.91;5067963;28;1849;-21
2023/01/15 06:51:14;;;;;;;;;;;;;;;28.82;22.44;101471.03;5076491;28;1988;-20
2023/01/15 06:53:39;;;;;;;;;;;;;;;29.57;21.62;101463.28;5059214;28;1115;-20
2023/01/15 06:56:05;;;;;;;;;;;;;;;29.86;21.24;101468.97;5058727;28;1120;-20
2023/01/15 06:58:30;;;;;;;;;;;;;;;29.96;20.92;101465.16;5071669;28;1061;-20
2023/01/15 07:00:55;;;;;;;;;;;;;;;29.42;21.28;101473.22;5058168;28;1060;-20
2023/01/15 07:03:21;;;;;;;;;;;;;;;29.23;22.00;101471.84;5058207;28;1027;-20
2023/01/15 07:05:46;;;;;;;;;;;;;;;28.76;22.55;101472.56;5060748;28;1155;-20
2023/01/15 07:08:12;;;;;;;;;;;;;;;29.07;22.23;101474.47;5062268;28;999;-20
2023/01/15 07:10:37;;;;;;;;;;;;;;;29.16;22.34;101469.81;5077522;28;1995;-20
2023/01/15 07:13:02;;;;;;;;;;;;;;;28.37;22.98;101474.25;5077562;28;1051;-20
2023/01/15 07:15:27;;;;;;;;;;;;;;;28.09;23.36;101477.34;5071229;28;1137;-20
2023/01/15 07:17:53;;;;;;;;;;;;;;;28.11;23.21;101475.31;5060728;28;1892;-20
2023/01/15 07:20:20;;;;;;;;;;;;;;;28.07;23.30;101472.09;5073044;28;1548;-20
2023/01/15 07:22:47;;;;;;;;;;;;;;;28.36;22.81;101472.56;5073355;28;1120;-20
2023/01/15 07:25:12;;;;;;;;;;;;;;;28.50;22.58;101471.00;5074026;28;1016;-20
2023/01/15 07:27:38;;;;;;;;;;;;;;;29.83;21.18;101474.75;5057759;28;1124;-20
2023/01/15 07:30:03;;;;;;;;;;;;;;;29.28;21.31;101474.84;5065846;28;1956;-21
2023/01/15 07:32:28;;;;;;;;;;;;;;;28.98;21.99;101472.81;5061208;28;1112;-20
2023/01/15 07:34:54;;;;;;;;;;;;;;;29.27;21.75;101471.28;5067558;28;984;-21
2023/01/15 07:37:19;;;;;;;;;;;;;;;29.14;21.87;101474.59;5056390;28;1156;-20
2023/01/15 07:39:44;;;;;;;;;;;;;;;29.39;21.78;101474.44;5069311;28;1068;-20
2023/01/15 07:50:23;;;;;;;;;;;;;;;28.80;22.42;101473.91;5054543;28;1967;-21
2023/01/15 07:52:48;;;;;;;;;;;;;;;29.38;21.69;101474.63;5067879;28;1028;-20
2023/01/15 07:55:13;;;;;;;;;;;;;;;29.55;21.65;101470.72;5075469;28;1019;-20
2023/01/15 07:57:42;;;;;;;;;;;;;;;29.90;21.13;101472.13;5057313;28;1096;-21
2023/01/15 08:00:09;;;;;;;;;;;;;;;29.52;21.31;101478.38;5073966;28;1198;-22
2023/01/15 08:02:34;;;;;;;;;;;;;;;29.32;21.59;101470.75;5076091;28;979;-21
2023/01/15 08:04:59;;;;;;;;;;;;;;;29.15;22.12;101468.16;5076935;28;1082;-20
2023/01/15 08:07:25;;;;;;;;;;;;;;;28.93;22.45;101469.75;5068884;28;1139;-21
2023/01/15 08:09:50;;;;;;;;;;;;;;;28.98;22.32;101480.13;5075546;28;1095;-20
2023/01/15 08:15:11;;;;;;;;;;;;;;;28.24;23.30;101478.31;5074980;28;971;-21
2023/01/15 08:17:37;;;;;;;;;;;;;;;28.31;23.16;101475.75;5057202;28;2040;-20
2023/01/15 08:20:03;;;;;;;;;;;;;;;28.44;23.06;101474.41;5070247;28;1031;-21
2023/01/15 08:22:28;;;;;;;;;;;;;;;28.87;22.21;101473.19;5057365;28;1085;-21
2023/01/15 08:24:53;;;;;;;;;;;;;;;28.82;22.03;101473.72;5069270;28;913;-20
2023/01/15 08:27:19;;;;;;;;;;;;;;;29.82;21.38;101478.50;5056835;28;1131;-21
2023/01/15 08:29:44;;;;;;;;;;;;;;;29.55;21.24;101475.31;5069243;28;1108;-20
2023/01/15 08:32:09;;;;;;;;;;;;;;;29.09;21.81;101463.47;5061675;28;1969;-21
2023/01/15 08:34:34;;;;;;;;;;;;;;;29.28;22.04;101464.84;5068971;28;1096;-20
2023/01/15 08:37:00;;;;;;;;;;;;;;;29.19;22.22;101474.06;5056505;28;1005;-20
2023/01/15 08:39:28;;;;;;;;;;;;;;;29.45;21.70;101483.69;5073950;28;1151;-20
2023/01/15 08:41:54;;;;;;;;;;;;;;;29.88;21.21;101477.75;5062707;28;1214;-21
2023/01/15 08:44:20;;;;;;;;;;;;;;;28.67;22.60;101477.19;5076134;28;1036;-20
2023/01/15 08:46:46;;;;;;;;;;;;;;;28.13;23.11;101462.44;5074909;28;1871;-20
2023/01/15 08:49:11;;;;;;;;;;;;;;;28.45;22.44;101462.53;5073101;28;1179;-21
2023/01/15 08:51:37;;;;;;;;;;;;;;;29.27;21.77;101462.31;5074267;28;1957;-21
2023/01/15 08:54:02;;;;;;;;;;;;;;;29.64;21.32;101462.56;5075731;28;1211;-20
2023/01/15 08:56:27;;;;;;;;;;;;;;;29.74;21.27;101456.88;5064777;28;1222;-21
2023/01/15 08:58:52;;;;;;;;;;;;;;;29.92;21.13;101456.53;5073328;28;1116;-20
2023/01/15 09:01:18;;;;;;;;;;;;;;;28.80;22.17;101451.38;5066882;28;1007;-20
2023/01/15 09:03:43;;;;;;;;;;;;;;;28.51;22.71;101448.31;5071907;28;1477;-21
2023/01/15 09:06:09;;;;;;;;;;;;;;;28.67;22.47;101455.53;5055645;28;1098;-21
2023/01/15 09:08:35;;;;;;;;;;;;;;;28.79;22.42;101445.16;5069446;28;1089;-20
2023/01/15 09:11:01;;;;;;;;;;;;;;;29.41;21.54;101445.25;5064681;28;1898;-21
2023/01/15 09:13:26;;;;;;;;;;;;;;;29.54;21.46;101436.53;5073788;28;1233;-20
2023/01/15 09:15:51;;;;;;;;;;;;;;;29.70;21.21;101440.13;5068371;28;1075;-21
2023/01/15 09:18:19;;;;;;;;;;;;;;;28.91;22.07;101442.03;5055673;28;1868;-21
2023/01/15 09:20:45;;;;;;;;;;;;;;;28.32;22.74;101434.16;5056085;28;1005;-20
2023/01/15 09:23:10;;;;;;;;;;;;;;;28.27;22.72;101435.69;5069937;28;1089;-21
2023/01/15 09:25:35;;;;;;;;;;;;;;;28.39;22.59;101433.50;5071844;28;1595;-20
2023/01/15 09:28:00;;;;;;;;;;;;;;;29.45;21.30;101427.63;5071311;28;1124;-21
2023/01/15 09:30:26;;;;;;;;;;;;;;;29.72;20.97;101424.53;5075628;28;1894;-20
2023/01/15 09:32:51;;;;;;;;;;;;;;;29.76;20.98;101420.41;5055579;28;1207;-20
2023/01/15 09:35:16;;;;;;;;;;;;;;;29.40;21.02;101424.59;5068879;28;1183;-21
2023/01/15 09:37:42;;;;;;;;;;;;;;;28.52;22.14;101420.25;5055737;28;1069;-20
2023/01/15 09:40:08;;;;;;;;;;;;;;;29.04;22.08;101419.81;5070929;28;1214;-21
2023/01/15 09:43:06;;;;;;;;;;;;;;;29.38;21.31;101418.53;5066831;28;1013;-21
2023/01/15 09:45:45;;;;;;;;;;;;;;;29.52;21.23;101414.19;5026562;28;1152;-20
2023/01/15 09:48:10;;;;;;;;;;;;;;;29.59;21.28;101417.03;5040632;28;1172;-21
2023/01/15 09:50:42;;;;;;;;;;;;;;;28.50;22.71;101405.19;5059259;28;1906;-20
2023/01/15 09:53:26;;;;;;;;;;;;;;;28.27;22.90;101403.22;5054837;28;1206;-20
2023/01/15 09:55:51;;;;;;;;;;;;;;;28.38;22.63;101402.88;5068701;28;1124;-21
2023/01/15 09:58:18;;;;;;;;;;;;;;;29.35;21.56;101394.50;5044815;28;1077;-21
2023/01/15 10:00:45;;;;;;;;;;;;;;;29.63;21.32;101387.69;5058164;28;1314;-21
2023/01/15 10:03:22;;;;;;;;;;;;;;;29.82;20.90;101389.00;5056229;28;1140;-21
2023/01/15 10:06:08;;;;;;;;;;;;;;;29.77;20.92;101391.44;5078839;28;1191;-22
2023/01/15 10:08:44;;;;;;;;;;;;;;;28.62;22.29;101389.41;5069706;28;1188;-21
2023/01/15 10:11:15;;;;;;;;;;;;;;;28.41;22.39;101380.03;5068926;28;1878;-22
2023/01/15 10:13:40;;;;;;;;;;;;;;;28.50;22.21;101372.72;5067201;28;1211;-21
2023/01/15 10:16:06;;;;;;;;;;;;;;;29.26;21.41;101380.16;5068274;28;1323;-21
2023/01/15 10:18:31;;;;;;;;;;;;;;;29.52;21.37;101364.53;5069069;28;1231;-21
2023/01/15 10:21:18;;;;;;;;;;;;;;;29.63;21.16;101366.00;5069403;28;1231;-20
2023/01/15 10:23:46;;;;;;;;;;;;;;;29.60;21.11;101369.06;5052430;28;1149;-20
2023/01/15 10:26:21;;;;;;;;;;;;;;;28.62;22.25;101362.31;5068337;28;1238;-20
2023/01/15 10:28:49;;;;;;;;;;;;;;;28.34;22.66;101350.16;5068183;28;1232;-21
2023/01/15 10:31:18;;;;;;;;;;;;;;;28.34;22.62;101345.56;5067539;28;1897;-20
2023/01/15 10:33:46;;;;;;;;;;;;;;;29.41;21.67;101339.56;5069971;28;1358;-21
2023/01/15 10:36:17;;;;;;;;;;;;;;;29.83;20.94;101341.84;5063398;28;1251;-21
2023/01/15 10:38:44;;;;;;;;;;;;;;;30.02;20.69;101342.31;5057318;28;1123;-20
2023/01/15 10:41:13;;;;;;;;;;;;;;;29.39;20.82;101336.22;5061762;28;1068;-21
2023/01/15 10:43:41;;;;;;;;;;;;;;;28.56;21.85;101336.84;5078559;28;1075;-21
2023/01/15 10:46:13;;;;;;;;;;;;;;;29.18;21.60;101328.75;5078371;28;1032;-21
2023/01/15 10:48:43;;;;;;;;;;;;;;;29.53;21.10;101334.53;5067644;28;1082;-20
2023/01/15 10:51:13;;;;;;;;;;;;;;;29.54;20.90;101330.81;5027095;28;1967;-20
2023/01/15 10:54:01;;;;;;;;;;;;;;;29.71;20.86;101325.25;5070705;28;1136;-21
2023/01/15 10:56:37;;;;;;;;;;;;;;;28.46;22.47;101328.94;5059296;28;1575;-20
2023/01/15 10:59:22;;;;;;;;;;;;;;;28.26;22.54;101323.09;5056518;28;1132;-20
2023/01/15 11:01:50;;;;;;;;;;;;;;;28.38;22.26;101319.00;5066312;28;1106;-20
2023/01/15 11:04:15;;;;;;;;;;;;;;;29.40;21.33;101313.50;5041637;28;1064;-20
2023/01/15 11:06:41;;;;;;;;;;;;;;;29.07;21.76;101311.09;5070779;28;1091;-20
2023/01/15 11:09:08;;;;;;;;;;;;;;;28.63;22.16;101318.84;5064923;28;1087;-20
2023/01/15 11:20:15;;;;;;;;;;;;;;;28.36;22.67;101302.13;5058757;28;1087;-20
2023/01/15 11:22:40;;;;;;;;;;;;;;;28.33;22.70;101308.72;5077841;28;1107;-20
2023/01/15 11:25:07;;;;;;;;;;;;;;;29.30;21.74;101302.06;5077555;28;1019;-20
2023/01/15 11:27:33;;;;;;;;;;;;;;;29.77;21.12;101302.78;5077542;28;936;-20
2023/01/15 11:29:59;;;;;;;;;;;;;;;28.68;22.15;101294.78;5074602;28;1119;-20
2023/01/15 11:32:24;;;;;;;;;;;;;;;28.32;22.36;101292.63;5074169;28;1930;-20
2023/01/15 11:34:53;;;;;;;;;;;;;;;29.38;21.67;101280.31;5077353;28;1087;-20
2023/01/15 11:37:18;;;;;;;;;;;;;;;29.39;21.50;101283.88;5073762;28;1032;-20
2023/01/15 11:39:50;;;;;;;;;;;;;;;29.72;21.20;101286.25;5069670;28;854;-20
2023/01/15 11:50:43;;;;;;;;;;;;;;;28.98;22.33;101279.69;5074207;28;1894;-20
2023/01/15 11:53:13;;;;;;;;;;;;;;;29.45;21.63;101280.41;5045040;28;976;-20
2023/01/15 11:55:38;;;;;;;;;;;;;;;29.69;21.42;101283.91;5052007;28;945;-20
2023/01/15 11:58:04;;;;;;;;;;;;;;;29.92;20.80;101274.81;5063086;28;1039;-20
2023/01/15 12:00:31;;;;;;;;;;;;;;;28.88;22.16;101277.22;5046657;28;1149;-20
2023/01/15 12:03:01;;;;;;;;;;;;;;;28.33;22.97;101272.69;5044960;28;1191;-20
2023/01/15 12:05:30;;;;;;;;;;;;;;;28.23;22.88;101276.44;5057669;28;1028;-20
2023/01/15 12:08:00;;;;;;;;;;;;;;;28.29;23.13;101280.31;5052878;28;1041;-20
2023/01/15 12:13:25;;;;;;;;;;;;;;;28.48;22.51;101270.06;5076729;28;857;-21
2023/01/15 12:16:09;;;;;;;;;;;;;;;28.22;22.88;101266.66;5063797;28;1210;-21
2023/01/15 12:18:52;;;;;;;;;;;;;;;28.94;22.18;101262.94;5055654;28;1059;-20
2023/01/15 12:21:36;;;;;;;;;;;;;;;29.17;22.11;101262.06;5059216;28;1226;-20
2023/01/15 12:24:04;;;;;;;;;;;;;;;29.45;21.77;101265.00;5075463;28;1075;-20
2023/01/15 12:26:38;;;;;;;;;;;;;;;28.89;22.25;101263.50;5064762;28;1059;-20
2023/01/15 12:29:03;;;;;;;;;;;;;;;28.19;23.29;101258.91;5060380;28;1080;-20
2023/01/15 12:31:40;;;;;;;;;;;;;;;28.09;23.28;101256.38;5065079;28;1907;-20
2023/01/15 12:34:05;;;;;;;;;;;;;;;28.03;23.50;101251.69;5045045;28;1502;-20
2023/01/15 12:36:32;;;;;;;;;;;;;;;29.02;22.46;101253.91;5076432;28;1099;-20
2023/01/15 12:38:59;;;;;;;;;;;;;;;29.87;21.14;101258.25;5061659;28;1163;-20
2023/01/15 12:47:15;;;;;;;;;;;;;;;28.83;22.42;101258.78;5074429;28;1188;-20
2023/01/15 12:49:45;;;;;;;;;;;;;;;29.01;22.14;101263.09;5076395;28;1187;-20
2023/01/15 12:52:13;;;;;;;;;;;;;;;29.37;21.78;101256.97;5057563;28;1894;-20
2023/01/15 12:54:49;;;;;;;;;;;;;;;28.62;22.54;101251.34;5057652;28;1076;-20
2023/01/15 12:57:15;;;;;;;;;;;;;;;28.23;23.24;101256.66;5058186;28;1051;-21
2023/01/15 12:59:43;;;;;;;;;;;;;;;28.37;22.94;101249.69;5045329;28;1199;-20
2023/01/15 13:02:20;;;;;;;;;;;;;;;28.58;22.59;101250.88;5068192;28;1047;-20
2023/01/15 13:05:04;;;;;;;;;;;;;;;29.04;22.37;101254.59;5050914;28;1032;-20
2023/01/15 13:07:36;;;;;;;;;;;;;;;29.42;21.78;101246.41;5056360;28;1099;-21
2023/01/15 13:10:17;;;;;;;;;;;;;;;29.78;21.53;101244.81;5053881;28;1199;-20
2023/01/15 13:12:42;;;;;;;;;;;;;;;28.87;21.97;101245.72;5056361;28;1078;-20
2023/01/15 13:15:17;;;;;;;;;;;;;;;28.69;22.42;101236.94;5063976;28;1215;-21
2023/01/15 13:17:43;;;;;;;;;;;;;;;28.73;22.34;101238.22;5058225;28;1092;-20
2023/01/15 13:20:08;;;;;;;;;;;;;;;28.98;22.09;101234.47;5075611;28;1297;-20
2023/01/15 13:22:36;;;;;;;;;;;;;;;29.34;21.95;101232.94;5062421;28;1131;-20
2023/01/15 13:25:21;;;;;;;;;;;;;;;28.92;22.42;101237.91;5057742;28;1249;-21
2023/01/15 13:27:46;;;;;;;;;;;;;;;28.45;22.65;101224.41;5039251;28;1152;-20
2023/01/15 13:30:11;;;;;;;;;;;;;;;28.45;23.10;101227.13;5068267;28;1894;-20
2023/01/15 13:32:44;;;;;;;;;;;;;;;28.73;22.38;101226.56;5057697;28;1119;-21
2023/01/15 13:35:16;;;;;;;;;;;;;;;28.78;22.48;101229.56;5038465;28;1036;-20
2023/01/15 13:37:42;;;;;;;;;;;;;;;29.73;21.46;101232.88;5062509;28;1067;-20
2023/01/15 13:40:07;;;;;;;;;;;;;;;29.37;21.40;101227.16;5074434;28;1238;-20